USTRANSCOM 7611


PHNL
Daniel K Inouye International Airport
Honolulu, Hawaii, US
PKWA
Bucholz AAF Airport
Kwajalein Atoll, Marshall Islands, MH

Activity Log

Date Flight Route Aircraft Duration
03/25/2019 CMB811 OPIHI2 CHOKO R584 MAZZA 10E73 NDJ B752 5h 17m

Route Details

Aircraft Information
Primary: Boeing 757-200SF
Backup: Not Available
Route Data
Distance: 2127nm
Sched. Duration: 4h 46m
Avg. Duration: 5h 17m (+72m)
Times Flown: 1
Recm'd Route: OPIHI2 CHOKO R584 MCFLY R584 MAZZA 1000N/17300E NDJ
Planned Altitude: 34,000ft
Origin Wx: PHNL 271053Z 05018G26KT 10SM SCT045 BKN070 23/14 A3017 RMK AO2 PK WND 06026/1051 RAB07E18 SLP217 P0000 T02330144
Dest. Wx: PKWA 271040Z AUTO 10020G26KT 10SM SCT018 SCT026 SCT034 28/28 A2982 RMK AO2 T02770275
Notes: USTRANSCOM CONTRACT FLIGHT | LIMITED FUEL AVBL TO NON-DOD ACFT

Financial History
Total Freight: 49,677lbs
Average Load: 49,677lbs/flt
Fuel Used: 38,816lbs
Avg. Fuel Used: 38,816lbs/flt
Fuel Expense: $26,783
Avg. Fuel Expense: $26,783
Avg. Fuel Cost: $0.69/lbs
Total Gross Income: $268,256
Pilot Pay: $229
Total Expenses: $29,024
Total Revenue: $211,183
Average Revenue: $268,255.81